createdAt,value
2019-04-05T00:01:10.916Z,36.67
2019-04-05T00:03:38.203Z,38.03
2019-04-05T00:06:05.268Z,38.67
2019-04-05T00:08:32.174Z,39.90
2019-04-05T00:11:00.044Z,39.43
2019-04-05T00:13:27.162Z,39.60
2019-04-05T00:15:54.078Z,39.47
2019-04-05T00:18:21.033Z,39.57
2019-04-05T00:20:47.935Z,39.37
2019-04-05T00:23:14.967Z,40.97
2019-04-05T00:25:41.932Z,39.40
2019-04-05T00:28:08.885Z,40.50
2019-04-05T00:30:35.840Z,41.53
2019-04-05T00:33:02.845Z,40.03
2019-04-05T00:35:29.759Z,39.93
2019-04-05T00:37:56.799Z,42.27
2019-04-05T00:40:23.862Z,41.37
2019-04-05T00:42:50.775Z,39.37
2019-04-05T00:45:27.639Z,41.00
2019-04-05T00:47:46.587Z,41.67
2019-04-05T00:50:13.716Z,41.83
2019-04-05T00:52:40.864Z,39.00
2019-04-05T00:55:08.023Z,39.47
2019-04-05T00:57:35.528Z,40.77
2019-04-05T01:00:03.120Z,41.13
2019-04-05T01:02:30.472Z,39.03
2019-04-05T01:04:57.425Z,42.10
2019-04-05T01:07:24.457Z,41.03
2019-04-05T01:09:51.520Z,39.23
2019-04-05T01:12:21.054Z,40.43
2019-04-05T01:14:48.091Z,39.80
2019-04-05T01:17:24.895Z,39.93
2019-04-05T01:19:46.331Z,39.07
2019-04-05T01:22:14.675Z,37.33
2019-04-05T01:24:42.115Z,39.93
2019-04-05T01:27:10.340Z,41.27
2019-04-05T01:29:37.328Z,40.03
2019-04-05T01:32:04.367Z,41.03
2019-04-05T01:34:31.437Z,40.73
2019-04-05T01:36:58.845Z,38.47
2019-04-05T01:39:25.768Z,39.97
2019-04-05T01:41:52.845Z,40.70
2019-04-05T01:44:19.996Z,41.23
2019-04-05T01:46:47.128Z,39.23
2019-04-05T01:49:14.166Z,38.70
2019-04-05T01:51:41.712Z,39.97
2019-04-05T01:54:08.647Z,38.30
2019-04-05T01:56:35.808Z,38.67
2019-04-05T01:59:03.024Z,40.37
2019-04-05T02:01:30.170Z,39.53
2019-04-05T02:03:57.199Z,40.57
2019-04-05T02:06:24.473Z,39.33
2019-04-05T02:08:51.548Z,37.77
2019-04-05T02:11:18.700Z,39.00
2019-04-05T02:13:45.769Z,39.93
2019-04-05T02:16:12.951Z,38.43
2019-04-05T02:18:39.931Z,40.23
2019-04-05T02:21:07.099Z,37.30
2019-04-05T02:23:34.248Z,35.77
2019-04-05T02:26:01.416Z,36.42
2019-04-05T02:28:28.577Z,36.70
2019-04-05T02:30:55.664Z,38.50
2019-04-05T02:33:22.909Z,37.60
2019-04-05T02:35:50.065Z,38.10
2019-04-05T02:38:17.187Z,37.85
2019-04-05T02:40:45.825Z,36.50
2019-04-05T02:43:16.561Z,37.48
2019-04-05T02:45:46.004Z,37.93
2019-04-05T02:48:13.947Z,36.98
2019-04-05T02:50:45.172Z,39.05
2019-04-05T02:53:14.208Z,39.60
2019-04-05T02:55:42.432Z,36.53
2019-04-05T02:58:12.796Z,36.40
2019-04-05T03:00:41.083Z,36.77
2019-04-05T03:03:08.507Z,36.83
2019-04-05T03:05:36.002Z,34.60
2019-04-05T03:08:03.945Z,36.55
2019-04-05T03:11:04.100Z,38.55
2019-04-05T03:13:35.206Z,36.77
2019-04-05T03:16:05.772Z,40.35
2019-04-05T03:18:35.634Z,37.42
2019-04-05T03:21:05.916Z,38.95
2019-04-05T03:23:35.988Z,36.77
2019-04-05T03:26:05.977Z,39.05
2019-04-05T03:28:36.739Z,35.85
2019-04-05T03:31:04.243Z,35.38
2019-04-05T03:33:31.249Z,36.68
2019-04-05T03:35:58.460Z,36.38
2019-04-05T03:38:26.552Z,35.50
2019-04-05T03:40:54.485Z,37.98
2019-04-05T03:43:21.626Z,38.08
2019-04-05T03:45:49.363Z,37.38
2019-04-05T03:48:16.493Z,36.10
2019-04-05T03:50:45.384Z,36.10
2019-04-05T03:53:12.967Z,37.93
2019-04-05T03:55:40.412Z,36.95
2019-04-05T03:58:07.439Z,36.05
2019-04-05T04:00:34.973Z,37.67
2019-04-05T04:03:02.458Z,36.93
2019-04-05T04:05:30.164Z,35.75
2019-04-05T04:07:57.318Z,35.05
2019-04-05T04:10:26.848Z,35.85
2019-04-05T04:12:54.289Z,36.40
2019-04-05T04:15:22.035Z,35.90
2019-04-05T04:17:49.295Z,36.70
2019-04-05T04:20:40.459Z,34.18
2019-04-05T04:23:09.126Z,32.78
2019-04-05T04:25:37.644Z,35.43
2019-04-05T04:28:05.082Z,36.70
2019-04-05T04:30:33.443Z,34.38
2019-04-05T04:33:01.096Z,35.17
2019-04-05T04:35:28.340Z,35.52
2019-04-05T04:37:55.561Z,35.10
2019-04-05T04:40:22.908Z,34.33
2019-04-05T04:42:49.935Z,35.63
2019-04-05T04:45:17.086Z,36.25
2019-04-05T04:47:44.915Z,35.85
2019-04-05T04:50:12.371Z,35.45
2019-04-05T04:52:39.896Z,35.90
2019-04-05T04:55:07.620Z,33.63
2019-04-05T04:57:35.197Z,36.50
2019-04-05T05:00:03.391Z,37.20
2019-04-05T05:02:30.535Z,35.00
2019-04-05T05:04:58.063Z,34.13
2019-04-05T05:07:25.194Z,33.83
2019-04-05T05:09:52.764Z,35.80
2019-04-05T05:12:19.802Z,32.58
2019-04-05T05:14:46.853Z,33.67
2019-04-05T05:17:13.802Z,32.80
2019-04-05T05:19:40.935Z,33.08
2019-04-05T05:22:07.975Z,35.13
2019-04-05T05:24:35.483Z,34.13
2019-04-05T05:27:02.717Z,35.75
2019-04-05T05:29:29.757Z,33.28
2019-04-05T05:31:56.891Z,34.27
2019-04-05T05:34:23.835Z,36.25
2019-04-05T05:36:50.987Z,34.85
2019-04-05T05:39:18.627Z,34.90
2019-04-05T05:41:45.776Z,36.83
2019-04-05T05:44:12.807Z,32.75
2019-04-05T05:46:39.739Z,35.50
2019-04-05T05:49:06.671Z,36.48
2019-04-05T05:51:33.699Z,36.13
2019-04-05T05:54:00.735Z,36.05
2019-04-05T05:56:27.677Z,36.48
2019-04-05T05:58:58.872Z,36.70
2019-04-05T06:01:23.535Z,39.45
2019-04-05T06:03:50.581Z,38.00
2019-04-05T06:06:17.523Z,38.00
2019-04-05T06:08:44.467Z,39.15
2019-04-05T06:11:11.403Z,37.70
2019-04-05T06:13:38.347Z,38.95
2019-04-05T06:16:05.379Z,36.77
2019-04-05T06:18:32.323Z,37.25
2019-04-05T06:20:59.259Z,37.78
2019-04-05T06:23:33.510Z,39.03
2019-04-05T06:25:55.081Z,37.83
2019-04-05T06:28:22.008Z,36.55
2019-04-05T06:30:48.947Z,37.13
2019-04-05T06:33:16.291Z,38.92
2019-04-05T06:35:43.232Z,37.67
2019-04-05T06:38:10.170Z,38.42
2019-04-05T06:40:41.110Z,37.55
2019-04-05T06:43:06.955Z,37.25
2019-04-05T06:45:34.183Z,39.30
2019-04-05T06:48:01.129Z,38.53
2019-04-05T06:50:28.476Z,38.70
2019-04-05T06:52:55.415Z,39.55
2019-04-05T06:55:22.459Z,39.40
2019-04-05T06:57:49.411Z,40.63
2019-04-05T07:00:22.627Z,41.10
2019-04-05T07:02:49.759Z,40.73
2019-04-05T07:05:16.793Z,39.53
2019-04-05T07:07:43.727Z,40.40
2019-04-05T07:10:10.780Z,40.90
2019-04-05T07:12:37.715Z,41.07
2019-04-05T07:15:04.883Z,41.87
2019-04-05T07:17:31.915Z,42.53
2019-04-05T07:19:58.852Z,40.53
2019-04-05T07:22:35.858Z,42.40
2019-04-05T07:24:54.864Z,42.93
2019-04-05T07:27:21.810Z,41.33
2019-04-05T07:29:48.755Z,41.97
2019-04-05T07:32:15.683Z,41.43
2019-04-05T07:34:42.660Z,45.33
2019-04-05T07:37:09.600Z,42.10
2019-04-05T07:39:36.535Z,40.67
2019-04-05T07:42:03.582Z,46.57
2019-04-05T07:44:30.634Z,44.70
2019-04-05T07:46:57.568Z,41.93
2019-04-05T07:49:24.491Z,39.33
2019-04-05T07:51:51.448Z,40.87
2019-04-05T07:54:18.374Z,40.27
2019-04-05T07:56:46.355Z,41.07
2019-04-05T07:59:13.859Z,40.93
2019-04-05T08:01:40.779Z,39.30
2019-04-05T08:04:07.705Z,39.87
2019-04-05T08:06:36.807Z,39.63
2019-04-05T08:09:11.939Z,38.97
2019-04-05T08:11:41.338Z,39.17
2019-04-05T08:14:09.280Z,38.87
2019-04-05T08:16:36.236Z,39.57
2019-04-05T08:19:03.699Z,39.47
2019-04-05T08:21:30.740Z,38.27
2019-04-05T08:23:57.687Z,39.00
2019-04-05T08:26:24.631Z,37.63
2019-04-05T08:28:51.903Z,37.13
2019-04-05T08:31:18.833Z,38.33
2019-04-05T08:33:45.773Z,37.40
2019-04-05T08:36:12.734Z,32.83
2019-04-05T08:38:40.071Z,28.77
2019-04-05T08:41:07.219Z,28.17
2019-04-05T08:43:34.168Z,27.87
2019-04-05T08:46:01.182Z,27.70
2019-04-05T08:48:28.120Z,29.93
2019-04-05T08:50:55.056Z,28.80
2019-04-05T08:53:21.988Z,28.90
2019-04-05T08:55:48.923Z,25.63
2019-04-05T08:58:15.959Z,25.43
2019-04-05T09:00:42.907Z,22.53
2019-04-05T09:03:11.963Z,19.07
2019-04-05T09:05:38.720Z,18.77
2019-04-05T09:08:06.071Z,18.77
2019-04-05T09:10:33.143Z,18.43
2019-04-05T09:13:00.084Z,18.37
2019-04-05T09:15:27.024Z,18.00
2019-04-05T09:17:53.944Z,16.83
2019-04-05T09:20:20.879Z,18.13
2019-04-05T09:22:47.823Z,17.93
2019-04-05T09:25:14.759Z,18.50
2019-04-05T09:27:41.696Z,16.63
2019-04-05T09:30:09.041Z,17.47
2019-04-05T09:32:36.670Z,17.50
2019-04-05T09:35:04.127Z,15.93
2019-04-05T09:37:31.151Z,14.67
2019-04-05T09:39:58.159Z,13.50
2019-04-05T09:42:25.091Z,12.47
2019-04-05T09:44:52.029Z,13.77
2019-04-05T09:47:18.991Z,12.07
2019-04-05T09:49:45.916Z,12.30
2019-04-05T09:52:12.856Z,12.23
2019-04-05T09:54:39.798Z,10.00
2019-04-05T09:57:07.099Z,10.10
2019-04-05T09:59:34.019Z,10.83
2019-04-05T10:02:01.067Z,10.50
2019-04-05T10:04:30.909Z,9.03
2019-04-05T10:06:56.933Z,8.23
2019-04-05T10:09:23.871Z,8.90
2019-04-05T10:11:50.811Z,8.90
2019-04-05T10:14:17.752Z,8.33
2019-04-05T10:21:37.975Z,7.70
2019-04-05T10:24:05.100Z,6.73
2019-04-05T10:26:32.143Z,6.05
2019-04-05T10:28:59.077Z,6.20
2019-04-05T10:31:26.006Z,5.65
2019-04-05T10:33:52.943Z,6.27
2019-04-05T10:36:20.206Z,5.30
2019-04-05T10:38:47.512Z,6.50
2019-04-05T10:41:14.521Z,5.37
2019-04-05T10:43:41.451Z,5.63
2019-04-05T10:46:08.575Z,5.40
2019-04-05T10:48:35.688Z,6.47
2019-04-05T10:51:03.595Z,6.50
2019-04-05T10:53:30.536Z,6.80
2019-04-05T10:58:24.267Z,7.10
2019-04-05T11:00:51.468Z,6.57
2019-04-05T11:03:18.379Z,6.80
2019-04-05T11:05:45.311Z,7.30
2019-04-05T11:08:12.243Z,7.00
2019-04-05T11:10:39.202Z,6.80
2019-04-05T11:13:06.136Z,6.60
2019-04-05T11:15:33.067Z,7.00
2019-04-05T11:18:00.112Z,6.90
2019-04-05T11:20:27.064Z,7.07
2019-04-05T11:22:53.992Z,6.60
2019-04-05T11:25:21.217Z,7.50
2019-04-05T11:27:48.440Z,7.20
2019-04-05T11:30:37.979Z,7.43
2019-04-05T11:33:04.902Z,7.75
2019-04-05T11:35:31.948Z,8.13
2019-04-05T11:37:59.083Z,8.10
2019-04-05T11:40:26.210Z,7.70
2019-04-05T11:42:54.451Z,7.80
2019-04-05T11:45:21.492Z,8.53
2019-04-05T11:47:53.473Z,8.30
2019-04-05T11:50:19.612Z,7.93
2019-04-05T11:52:46.555Z,8.60
2019-04-05T11:55:14.188Z,9.07
2019-04-05T11:57:41.906Z,9.37
2019-04-05T12:00:12.569Z,9.00
2019-04-05T12:02:52.002Z,9.23
2019-04-05T12:05:20.351Z,8.67
2019-04-05T12:07:47.771Z,8.63
2019-04-05T12:10:18.566Z,8.73
2019-04-05T12:12:43.779Z,9.20
2019-04-05T12:15:11.911Z,8.57
2019-04-05T12:17:38.847Z,9.00
2019-04-05T12:20:07.527Z,8.90
2019-04-05T12:22:34.920Z,8.43
2019-04-05T12:25:03.697Z,9.10
2019-04-05T12:27:30.675Z,8.40
2019-04-05T12:29:57.634Z,8.27
2019-04-05T12:32:34.563Z,8.33
2019-04-05T12:34:57.015Z,8.87
2019-04-05T12:37:23.947Z,8.80
2019-04-05T12:39:50.891Z,8.03
2019-04-05T12:42:17.921Z,7.57
2019-04-05T12:44:45.455Z,8.03
2019-04-05T12:47:15.491Z,7.07
2019-04-05T12:49:41.452Z,7.63
2019-04-05T12:52:21.782Z,7.60
2019-04-05T12:54:39.533Z,7.20
2019-04-05T12:57:06.463Z,7.10
2019-04-05T12:59:33.388Z,8.23
2019-04-05T13:02:00.324Z,7.27
2019-04-05T13:04:27.255Z,7.00
2019-04-05T13:06:54.219Z,7.50
2019-04-05T13:09:21.452Z,6.57
2019-04-05T13:11:50.252Z,6.43
2019-04-05T13:14:17.187Z,6.40
2019-04-05T13:16:44.127Z,6.57
2019-04-05T13:19:11.063Z,6.77
2019-04-05T13:21:37.996Z,6.57
2019-04-05T13:24:09.388Z,6.90
2019-04-05T13:26:36.667Z,6.90
2019-04-05T13:29:03.213Z,5.83
2019-04-05T13:31:30.155Z,6.03
2019-04-05T13:33:57.096Z,6.77
2019-04-05T13:36:24.372Z,7.00
2019-04-05T13:38:55.039Z,7.63
2019-04-05T13:41:20.136Z,6.80
2019-04-05T13:43:47.055Z,7.30
2019-04-05T13:46:22.038Z,6.63
2019-04-05T13:48:42.828Z,6.63
2019-04-05T13:51:12.167Z,6.20
2019-04-05T13:53:40.573Z,6.53
2019-04-05T13:56:08.598Z,6.73
2019-04-05T13:58:36.265Z,6.83
2019-04-05T14:01:03.289Z,6.80
2019-04-05T14:03:30.211Z,7.00
2019-04-05T14:05:57.143Z,6.27
2019-04-05T14:08:24.167Z,6.67
2019-04-05T14:10:51.112Z,6.30
2019-04-05T14:13:18.276Z,6.30
2019-04-05T14:15:45.396Z,6.50
2019-04-05T14:18:14.343Z,7.00
2019-04-05T14:20:41.267Z,6.90
2019-04-05T14:23:08.287Z,7.40
2019-04-05T14:25:35.235Z,7.00
2019-04-05T14:28:02.515Z,7.17
2019-04-05T14:30:32.987Z,6.40
2019-04-05T14:33:00.046Z,6.70
2019-04-05T14:35:27.087Z,6.33
2019-04-05T14:37:54.622Z,6.70
2019-04-05T14:40:22.372Z,7.57
2019-04-05T14:42:49.303Z,7.23
2019-04-05T14:45:16.448Z,7.90
2019-04-05T14:47:43.476Z,7.20
2019-04-05T14:50:11.111Z,7.17
2019-04-05T14:52:38.031Z,7.60
2019-04-05T14:55:05.779Z,7.60
2019-04-05T14:57:35.704Z,7.53
2019-04-05T15:00:01.747Z,7.47
2019-04-05T15:02:29.143Z,8.03
2019-04-05T15:04:56.080Z,7.33
2019-04-05T15:07:23.055Z,7.30
2019-04-05T15:09:50.071Z,7.10
2019-04-05T15:12:17.011Z,7.20
2019-04-05T15:14:43.959Z,7.67
2019-04-05T15:17:10.887Z,7.87
2019-04-05T15:19:38.107Z,7.27
2019-04-05T15:22:06.389Z,7.03
2019-04-05T15:24:34.511Z,8.03
2019-04-05T15:27:01.439Z,7.83
2019-04-05T15:29:28.384Z,7.97
2019-04-05T15:31:55.628Z,7.53
2019-04-05T15:34:23.347Z,7.03
2019-04-05T15:36:50.273Z,7.37
2019-04-05T15:39:17.397Z,7.43
2019-04-05T15:41:44.331Z,7.70
2019-04-05T15:44:11.279Z,7.63
2019-04-05T15:46:38.215Z,7.70
2019-04-05T15:49:05.263Z,7.30
2019-04-05T15:51:32.195Z,8.07
2019-04-05T15:54:01.142Z,7.27
2019-04-05T15:56:28.383Z,7.60
2019-04-05T15:58:55.411Z,7.90
2019-04-05T16:01:22.328Z,8.93
2019-04-05T16:03:49.359Z,8.87
2019-04-05T16:06:16.508Z,8.43
2019-04-05T16:08:43.443Z,8.93
2019-04-05T16:11:10.467Z,9.67
2019-04-05T16:13:37.404Z,9.50
2019-04-05T16:16:04.551Z,10.50
2019-04-05T16:18:31.580Z,9.77
2019-04-05T16:20:58.509Z,10.70
2019-04-05T16:23:25.433Z,11.90
2019-04-05T16:25:52.375Z,11.33
2019-04-05T16:28:19.547Z,10.57
2019-04-05T16:30:46.538Z,10.67
2019-04-05T16:33:13.464Z,10.73
2019-04-05T16:35:40.652Z,11.33
2019-04-05T16:38:07.684Z,11.63
2019-04-05T16:40:34.616Z,12.90
2019-04-05T16:43:03.019Z,13.30
2019-04-05T16:45:30.398Z,13.30
2019-04-05T16:47:57.438Z,12.45
2019-04-05T16:50:24.487Z,11.43
2019-04-05T16:52:51.867Z,11.70
2019-04-05T16:55:18.796Z,11.30
2019-04-05T16:57:45.749Z,10.97
2019-04-05T17:00:14.679Z,10.33
2019-04-05T17:02:41.839Z,10.90
2019-04-05T17:05:09.348Z,10.60
2019-04-05T17:07:36.299Z,11.00
2019-04-05T17:12:30.879Z,10.40
2019-04-05T17:14:57.923Z,11.73
2019-04-05T17:17:24.847Z,12.40
2019-04-05T17:19:51.829Z,12.25
2019-04-05T17:22:19.047Z,12.73
2019-04-05T17:24:45.973Z,11.90
2019-04-05T17:27:12.912Z,13.40
2019-04-05T17:29:39.908Z,14.73
2019-04-05T17:32:06.863Z,14.33
2019-04-05T17:34:33.806Z,14.13
2019-04-05T17:37:00.945Z,14.80
2019-04-05T17:39:27.910Z,13.10
2019-04-05T17:41:54.875Z,13.67
2019-04-05T17:44:21.815Z,13.10
2019-04-05T17:46:48.765Z,12.57
2019-04-05T17:51:42.271Z,12.30
2019-04-05T17:54:09.201Z,12.13
2019-04-05T17:56:36.344Z,11.73
2019-04-05T17:59:04.115Z,12.43
2019-04-05T18:01:31.254Z,11.30
2019-04-05T18:03:58.225Z,11.53
2019-04-05T18:06:25.183Z,11.30
2019-04-05T18:08:52.142Z,12.67
2019-04-05T18:11:19.188Z,12.23
2019-04-05T18:13:46.152Z,12.90
2019-04-05T18:16:13.187Z,12.57
2019-04-05T18:18:40.569Z,12.20
2019-04-05T18:21:07.507Z,12.50
2019-04-05T18:23:34.465Z,13.00
2019-04-05T18:26:01.801Z,12.77
2019-04-05T18:28:29.323Z,13.23
2019-04-05T18:30:56.360Z,13.03
2019-04-05T18:33:23.300Z,12.93
2019-04-05T18:35:50.339Z,13.03
2019-04-05T18:38:17.272Z,12.63
2019-04-05T18:40:44.195Z,14.37
2019-04-05T18:43:11.137Z,12.80
2019-04-05T18:45:38.069Z,12.87
2019-04-05T18:48:05.016Z,12.73
2019-04-05T18:50:31.961Z,13.10
2019-04-05T18:52:58.899Z,12.83
2019-04-05T18:55:25.834Z,13.20
2019-04-05T18:57:52.765Z,13.57
2019-04-05T19:00:19.802Z,13.23
2019-04-05T19:02:47.223Z,13.30
2019-04-05T19:05:14.397Z,13.87
2019-04-05T19:07:41.560Z,13.93
2019-04-05T19:10:08.711Z,14.90
2019-04-05T19:12:35.799Z,14.10
2019-04-05T19:15:03.519Z,15.40
2019-04-05T19:17:30.673Z,13.17
2019-04-05T19:19:57.592Z,15.03
2019-04-05T19:22:24.523Z,16.30
2019-04-05T19:24:51.543Z,15.50
2019-04-05T19:27:18.476Z,16.50
2019-04-05T19:29:45.403Z,14.83
2019-04-05T19:49:34.743Z,23.53
2019-04-05T19:52:01.763Z,24.63
2019-04-05T19:54:28.699Z,22.57
2019-04-05T19:56:55.639Z,25.30
2019-04-05T19:59:22.675Z,25.23
2019-04-05T20:01:49.610Z,26.23
2019-04-05T20:04:16.528Z,27.93
2019-04-05T20:06:43.459Z,27.63
2019-04-05T20:09:10.604Z,27.53
2019-04-05T20:11:37.632Z,30.50
2019-04-05T20:14:04.769Z,28.67
2019-04-05T20:16:31.708Z,34.80
2019-04-05T20:18:59.012Z,38.00
2019-04-05T20:21:25.946Z,38.30
2019-04-05T20:26:19.472Z,39.23
2019-04-05T20:28:46.411Z,37.37
2019-04-05T20:31:13.347Z,36.90
2019-04-05T20:33:40.281Z,39.00
2019-04-05T20:36:07.548Z,43.20
2019-04-05T20:38:34.476Z,41.70
2019-04-05T20:41:01.410Z,42.23
2019-04-05T20:43:28.343Z,41.80
2019-04-05T20:45:55.280Z,41.47
2019-04-05T20:48:22.215Z,40.83
2019-04-05T20:50:49.182Z,40.60
2019-04-05T20:53:16.135Z,41.63
2019-04-05T20:55:43.079Z,41.45
2019-04-05T20:58:10.027Z,39.90
2019-04-05T21:00:36.960Z,42.15
2019-04-05T21:03:04.428Z,41.10
2019-04-05T21:05:31.448Z,42.30
2019-04-05T21:07:58.395Z,41.13
2019-04-05T21:10:25.336Z,40.60
2019-04-05T21:12:52.261Z,42.93
2019-04-05T21:15:19.195Z,44.27
2019-04-05T21:17:46.131Z,43.33
2019-04-05T21:20:13.375Z,46.90
2019-04-05T21:22:40.441Z,47.13
2019-04-05T21:25:07.984Z,48.83
2019-04-05T21:27:34.928Z,46.87
2019-04-05T21:30:02.108Z,48.90
2019-04-05T21:32:29.072Z,47.13
2019-04-05T21:34:56.062Z,49.13
2019-04-05T21:37:23.139Z,46.27
2019-04-05T21:39:50.585Z,46.37
2019-04-05T21:42:17.573Z,49.30
2019-04-05T21:44:46.387Z,45.63
2019-04-05T21:47:13.450Z,46.73
2019-04-05T21:49:40.537Z,45.77
2019-04-05T21:52:07.545Z,46.40
2019-04-05T21:54:34.899Z,47.20
2019-04-05T21:57:02.084Z,47.30
2019-04-05T21:59:29.081Z,47.17
2019-04-05T22:01:56.180Z,47.63
2019-04-05T22:04:23.372Z,47.43
2019-04-05T22:06:50.693Z,47.67
2019-04-05T22:09:17.689Z,47.83
2019-04-05T22:11:44.948Z,49.03
2019-04-05T22:14:11.965Z,47.50
2019-04-05T22:16:41.427Z,46.87
2019-04-05T22:19:09.217Z,52.07
2019-04-05T22:21:36.819Z,51.50
2019-04-05T22:24:04.397Z,49.77
2019-04-05T22:26:31.543Z,50.00
2019-04-05T22:28:58.631Z,52.50
2019-04-05T22:31:25.755Z,52.27
2019-04-05T22:33:52.847Z,53.00
2019-04-05T22:36:19.946Z,52.23
2019-04-05T22:38:47.074Z,51.03
2019-04-05T22:41:14.599Z,50.73
2019-04-05T22:43:41.802Z,49.23
2019-04-05T22:46:08.924Z,48.30
2019-04-05T22:48:36.038Z,47.37
2019-04-05T22:51:03.254Z,48.53
2019-04-05T22:53:30.358Z,47.37
2019-04-05T22:55:57.474Z,47.93
2019-04-05T22:58:24.578Z,47.80
2019-04-05T23:00:51.698Z,49.77
2019-04-05T23:03:18.795Z,48.13
2019-04-05T23:05:46.270Z,47.30
2019-04-05T23:08:13.726Z,45.53
2019-04-05T23:10:40.850Z,47.93
2019-04-05T23:13:07.963Z,46.27
2019-04-05T23:15:35.088Z,47.10
2019-04-05T23:18:02.187Z,45.00
2019-04-05T23:20:29.298Z,46.43
2019-04-05T23:22:56.406Z,45.93
2019-04-05T23:25:23.509Z,45.97
2019-04-05T23:27:50.710Z,45.53
2019-04-05T23:30:19.738Z,47.90
2019-04-05T23:32:46.946Z,45.17
2019-04-05T23:35:14.079Z,46.23
2019-04-05T23:37:41.170Z,45.70
2019-04-05T23:40:08.833Z,43.90
2019-04-05T23:42:36.291Z,46.83
2019-04-05T23:45:03.614Z,46.33
2019-04-05T23:47:30.717Z,46.37
2019-04-05T23:49:57.848Z,46.67
2019-04-05T23:52:24.967Z,49.00
2019-04-05T23:54:52.090Z,45.63
2019-04-05T23:57:19.202Z,45.43
2019-04-05T23:59:46.438Z,46.87
